Time;durP1;ratioP1;P1;durP2;ratioP2;P2;SDS_P1;SDS_P2;PMS_P1;PMS_P2;Temp;Humidity;BMP_temperature;BMP_pressure;BME280_temperature;BME280_humidity;BME280_pressure;Samples;Min_cycle;Max_cycle;Signal;HPM_P1;HPM_P2
2023/11/07 00:02:08;;;;;;;2.53;1.27;;;22.50;58.00;;;;;;6051775;23;91351;-86
2023/11/07 00:04:34;;;;;;;1.52;0.60;;;22.50;57.90;;;;;;6050524;23;91170;-88
2023/11/07 00:07:00;;;;;;;2.05;1.00;;;22.50;58.10;;;;;;6050964;23;87605;-89
2023/11/07 00:09:26;;;;;;;1.23;0.60;;;22.50;58.10;;;;;;6050167;23;89017;-88
2023/11/07 00:11:52;;;;;;;1.50;0.82;;;22.50;58.30;;;;;;6038095;23;90443;-87
2023/11/07 00:14:21;;;;;;;0.98;0.68;;;22.50;58.00;;;;;;6074025;23;87185;-86
2023/11/07 00:16:47;;;;;;;1.15;0.60;;;22.50;58.00;;;;;;6051886;23;87592;-88
2023/11/07 00:19:13;;;;;;;1.58;0.70;;;22.40;58.00;;;;;;6050980;23;89274;-87
2023/11/07 00:21:38;;;;;;;1.88;0.90;;;22.40;58.00;;;;;;6052025;23;88095;-88
2023/11/07 00:24:05;;;;;;;1.60;0.90;;;22.40;58.20;;;;;;6052373;23;88960;-87
2023/11/07 00:26:31;;;;;;;1.20;0.90;;;22.40;58.20;;;;;;6053834;23;88591;-88
2023/11/07 00:28:57;;;;;;;0.85;0.60;;;22.40;58.20;;;;;;6051326;23;89410;-88
2023/11/07 00:31:23;;;;;;;1.88;0.98;;;22.40;58.20;;;;;;6053549;23;88519;-88
2023/11/07 00:33:49;;;;;;;0.73;0.70;;;22.30;58.20;;;;;;6051541;23;90379;-88
2023/11/07 00:36:14;;;;;;;0.82;0.65;;;22.30;58.30;;;;;;6053891;23;87433;-87
2023/11/07 00:38:40;;;;;;;0.90;0.60;;;22.30;58.30;;;;;;6050991;23;89272;-88
2023/11/07 00:41:06;;;;;;;1.67;0.80;;;22.30;58.30;;;;;;6051872;23;89831;-88
2023/11/07 00:43:32;;;;;;;1.20;0.80;;;22.30;58.20;;;;;;6051676;23;89184;-88
2023/11/07 00:45:58;;;;;;;1.63;0.63;;;22.20;58.20;;;;;;6052357;23;87730;-86
2023/11/07 00:48:28;;;;;;;1.92;0.93;;;22.20;58.20;;;;;;6051052;23;89297;-87
2023/11/07 00:50:54;;;;;;;2.28;0.70;;;22.20;58.30;;;;;;6050427;23;90497;-88
2023/11/07 00:53:19;;;;;;;0.70;0.50;;;22.20;58.20;;;;;;6054400;23;89089;-87
2023/11/07 00:55:45;;;;;;;0.88;0.73;;;22.20;58.30;;;;;;6053963;23;87197;-87
2023/11/07 00:58:11;;;;;;;2.83;0.80;;;22.20;58.40;;;;;;6051085;23;89638;-88
2023/11/07 01:00:36;;;;;;;1.15;0.68;;;22.20;58.30;;;;;;6050952;23;89121;-87
2023/11/07 01:03:02;;;;;;;1.23;0.80;;;22.20;58.40;;;;;;6042777;23;88206;-88
2023/11/07 01:05:28;;;;;;;1.35;0.68;;;22.10;58.20;;;;;;6051487;23;87405;-88
2023/11/07 01:07:53;;;;;;;1.58;0.82;;;22.10;58.20;;;;;;6050516;23;89235;-88
2023/11/07 01:10:19;;;;;;;1.13;0.70;;;22.10;58.30;;;;;;6051002;23;90933;-87
2023/11/07 01:12:46;;;;;;;1.05;0.60;;;22.10;58.20;;;;;;6051775;23;90801;-88
2023/11/07 01:15:12;;;;;;;1.60;0.88;;;22.10;58.20;;;;;;6053459;23;88420;-88
2023/11/07 01:17:37;;;;;;;3.47;0.98;;;22.10;58.30;;;;;;6050999;23;89165;-87
2023/11/07 01:20:06;;;;;;;2.95;1.05;;;22.10;58.30;;;;;;6052686;23;90549;-87
2023/11/07 01:22:32;;;;;;;1.03;0.63;;;22.10;58.20;;;;;;6059382;23;87441;-87
2023/11/07 01:24:58;;;;;;;1.95;0.60;;;22.10;58.20;;;;;;6062113;23;87315;-87
2023/11/07 01:27:24;;;;;;;0.80;0.57;;;22.10;58.20;;;;;;6055270;23;89712;-87
2023/11/07 01:29:50;;;;;;;1.30;0.70;;;22.00;58.10;;;;;;6054275;23;89266;-88
2023/11/07 01:32:17;;;;;;;1.17;0.77;;;22.00;58.10;;;;;;6053351;23;89288;-88
2023/11/07 01:34:43;;;;;;;1.58;0.70;;;22.00;58.00;;;;;;6052560;23;87241;-88
2023/11/07 01:37:13;;;;;;;2.20;0.82;;;22.00;57.90;;;;;;6051557;23;89631;-88
2023/11/07 01:39:39;;;;;;;0.73;0.70;;;22.00;58.00;;;;;;6051178;23;91273;-87
2023/11/07 01:42:07;;;;;;;1.23;0.65;;;22.00;58.00;;;;;;6052976;23;88296;-88
2023/11/07 01:44:32;;;;;;;1.00;0.57;;;21.90;58.10;;;;;;6052436;23;87602;-88
2023/11/07 01:46:59;;;;;;;0.90;0.70;;;21.90;58.20;;;;;;6050964;23;89870;-88
2023/11/07 01:49:24;;;;;;;1.23;0.77;;;21.90;58.00;;;;;;6051453;23;90216;-88
2023/11/07 01:51:54;;;;;;;1.08;0.70;;;21.90;58.00;;;;;;6051663;23;87515;-87
2023/11/07 01:54:21;;;;;;;;;;;21.90;58.20;;;;;;6051995;23;86915;-87
2023/11/07 01:56:46;;;;;;;0.95;0.60;;;21.90;58.30;;;;;;6052710;23;88201;-88
2023/11/07 01:59:12;;;;;;;0.43;0.43;;;21.90;58.20;;;;;;6050919;23;90357;-86
2023/11/07 02:01:43;;;;;;;1.30;0.70;;;21.90;58.20;;;;;;6052833;23;88347;-88
2023/11/07 02:04:09;;;;;;;0.60;0.60;;;21.90;58.10;;;;;;6051243;23;88349;-88
2023/11/07 02:06:35;;;;;;;1.48;0.70;;;21.90;58.30;;;;;;6052663;23;87615;-88
2023/11/07 02:09:01;;;;;;;0.70;0.60;;;21.90;58.30;;;;;;6051614;23;87783;-87
2023/11/07 02:11:28;;;;;;;0.80;0.68;;;21.80;58.50;;;;;;6050876;23;87774;-87
2023/11/07 02:13:53;;;;;;;1.63;0.82;;;21.80;58.30;;;;;;6040569;23;87723;-88
2023/11/07 02:16:19;;;;;;;1.40;0.65;;;21.80;58.30;;;;;;6050705;23;89593;-87
2023/11/07 02:18:45;;;;;;;1.10;0.80;;;21.80;58.30;;;;;;6049638;23;89265;-87
2023/11/07 02:21:11;;;;;;;1.40;0.88;;;21.80;58.30;;;;;;6050489;23;89410;-87
2023/11/07 02:23:39;;;;;;;0.60;0.57;;;21.80;58.30;;;;;;6052332;23;87695;-88
2023/11/07 02:26:05;;;;;;;0.82;0.70;;;21.80;58.40;;;;;;6051780;23;92341;-88
2023/11/07 02:28:32;;;;;;;1.10;0.60;;;21.80;58.60;;;;;;6051027;23;91488;-88
2023/11/07 02:30:58;;;;;;;0.68;0.50;;;21.80;58.60;;;;;;6049669;23;91249;-87
2023/11/07 02:33:23;;;;;;;0.80;0.70;;;21.80;58.60;;;;;;6051531;23;87258;-88
2023/11/07 02:35:49;;;;;;;1.15;0.60;;;21.80;58.40;;;;;;6049890;23;89421;-86
2023/11/07 02:38:16;;;;;;;1.20;0.60;;;21.70;58.40;;;;;;6053389;23;87936;-89
2023/11/07 02:40:42;;;;;;;1.35;0.70;;;21.80;58.30;;;;;;6052514;23;88132;-87
2023/11/07 02:43:08;;;;;;;1.27;0.73;;;21.70;58.40;;;;;;6052282;23;87832;-88
2023/11/07 02:45:35;;;;;;;1.20;0.75;;;21.70;58.40;;;;;;6051196;23;89864;-88
2023/11/07 02:48:02;;;;;;;1.23;0.68;;;21.70;58.40;;;;;;6052314;23;88565;-88
2023/11/07 02:50:28;;;;;;;0.90;0.55;;;21.70;58.40;;;;;;6053694;23;87769;-88
2023/11/07 02:52:53;;;;;;;1.45;0.85;;;21.70;58.30;;;;;;6052263;23;88118;-87
2023/11/07 02:55:19;;;;;;;0.93;0.70;;;21.70;58.40;;;;;;6049835;23;89378;-87
2023/11/07 02:57:45;;;;;;;0.90;0.60;;;21.70;58.30;;;;;;6051263;23;90773;-88
2023/11/07 03:00:12;;;;;;;1.38;0.70;;;21.70;58.30;;;;;;6049922;23;89101;-87
2023/11/07 03:02:39;;;;;;;1.77;0.70;;;21.70;58.30;;;;;;6050950;23;87325;-87
2023/11/07 03:05:08;;;;;;;0.52;0.50;;;21.70;58.30;;;;;;6050963;23;89647;-88
2023/11/07 03:07:34;;;;;;;;;;;21.60;58.00;;;;;;6050509;23;90185;-87
2023/11/07 03:10:01;;;;;;;1.08;0.50;;;21.60;58.30;;;;;;6052055;23;87953;-87
2023/11/07 03:12:28;;;;;;;1.52;0.70;;;21.60;58.30;;;;;;6053281;23;87730;-88
2023/11/07 03:14:54;;;;;;;1.20;0.70;;;21.60;58.30;;;;;;6040364;23;87685;-88
2023/11/07 03:17:20;;;;;;;0.60;0.60;;;21.60;58.40;;;;;;6049810;23;91791;-88
2023/11/07 03:19:51;;;;;;;0.75;0.60;;;21.60;58.20;;;;;;6050005;23;91443;-88
2023/11/07 03:22:18;;;;;;;0.70;0.60;;;21.60;58.40;;;;;;6050460;23;87307;-87
2023/11/07 03:24:43;;;;;;;1.20;0.75;;;21.60;58.20;;;;;;6050192;23;89372;-87
2023/11/07 03:27:09;;;;;;;0.73;0.57;;;21.60;58.20;;;;;;6037690;23;90825;-88
2023/11/07 03:29:35;;;;;;;0.55;0.47;;;21.60;58.30;;;;;;6051406;23;90474;-87
2023/11/07 03:32:01;;;;;;;0.90;0.50;;;21.60;58.30;;;;;;6052771;23;87019;-88
2023/11/07 03:34:26;;;;;;;2.58;0.73;;;21.60;58.20;;;;;;6054307;23;86621;-89
2023/11/07 03:36:53;;;;;;;1.30;0.63;;;21.50;58.30;;;;;;6053632;23;88556;-88
2023/11/07 03:39:19;;;;;;;1.00;0.60;;;21.60;58.40;;;;;;6053992;23;88081;-88
2023/11/07 03:41:46;;;;;;;0.90;0.52;;;21.50;58.40;;;;;;6051351;23;87990;-88
2023/11/07 03:44:12;;;;;;;0.47;0.43;;;21.60;58.60;;;;;;6052327;23;88510;-87
2023/11/07 03:46:37;;;;;;;1.33;0.70;;;21.50;58.50;;;;;;6052554;23;90548;-87
2023/11/07 03:49:03;;;;;;;0.95;0.52;;;21.50;58.40;;;;;;6052340;23;88793;-88
2023/11/07 03:51:29;;;;;;;0.90;0.55;;;21.50;58.40;;;;;;6052055;23;87925;-87
2023/11/07 03:53:57;;;;;;;0.50;0.50;;;21.50;58.40;;;;;;6051204;23;89010;-87
2023/11/07 03:56:23;;;;;;;1.15;0.57;;;21.50;58.40;;;;;;6050813;23;90840;-87
2023/11/07 03:58:48;;;;;;;0.73;0.50;;;21.50;58.40;;;;;;6051938;23;90100;-88
2023/11/07 04:01:14;;;;;;;1.17;0.70;;;21.50;58.30;;;;;;6052976;23;87333;-87
2023/11/07 04:03:39;;;;;;;0.50;0.50;;;21.50;58.40;;;;;;6052451;23;88004;-86
2023/11/07 04:06:05;;;;;;;1.08;0.47;;;21.50;58.40;;;;;;6050675;23;91166;-88
2023/11/07 04:08:31;;;;;;;1.45;0.75;;;21.50;58.50;;;;;;6052764;23;90925;-88
2023/11/07 04:10:56;;;;;;;0.40;0.40;;;21.50;58.60;;;;;;6051860;23;88043;-88
2023/11/07 04:13:22;;;;;;;0.70;0.50;;;21.50;58.40;;;;;;6051592;23;89306;-88
2023/11/07 04:15:48;;;;;;;0.52;0.47;;;21.50;58.50;;;;;;6052654;23;89304;-87
2023/11/07 04:18:13;;;;;;;1.48;0.60;;;21.40;58.40;;;;;;6041316;23;89905;-87
2023/11/07 04:20:42;;;;;;;0.93;0.60;;;21.50;58.40;;;;;;6051519;23;87621;-86
2023/11/07 04:23:09;;;;;;;0.60;0.60;;;21.50;58.20;;;;;;6055168;23;87320;-87
2023/11/07 04:25:35;;;;;;;1.33;0.60;;;21.40;58.10;;;;;;6051710;23;90508;-87
2023/11/07 04:28:02;;;;;;;0.60;0.55;;;21.40;58.30;;;;;;6053283;23;88152;-87
2023/11/07 04:30:28;;;;;;;0.82;0.55;;;21.40;58.40;;;;;;6050410;23;88402;-88
2023/11/07 04:32:53;;;;;;;1.60;0.70;;;21.40;58.50;;;;;;6054589;23;87290;-87
2023/11/07 04:35:19;;;;;;;1.23;0.60;;;21.40;58.50;;;;;;6052226;23;90038;-88
2023/11/07 04:37:45;;;;;;;1.02;0.60;;;21.40;58.50;;;;;;6050423;23;90697;-88
2023/11/07 04:40:11;;;;;;;0.73;0.60;;;21.40;58.50;;;;;;6053845;23;87691;-88
2023/11/07 04:42:36;;;;;;;0.98;0.60;;;21.40;58.40;;;;;;6052314;23;87575;-86
2023/11/07 04:45:03;;;;;;;0.73;0.60;;;21.40;58.50;;;;;;6050712;23;89379;-87
2023/11/07 04:47:28;;;;;;;1.05;0.70;;;21.40;58.40;;;;;;6052757;23;90880;-88
2023/11/07 04:49:59;;;;;;;1.38;0.70;;;21.40;58.40;;;;;;6050969;23;87531;-88
2023/11/07 04:52:24;;;;;;;0.63;0.50;;;21.30;58.50;;;;;;6053645;23;87543;-87
2023/11/07 04:54:50;;;;;;;0.70;0.57;;;21.40;58.30;;;;;;6051026;23;90256;-87
2023/11/07 04:57:16;;;;;;;0.65;0.50;;;21.30;58.30;;;;;;6051079;23;90087;-88
2023/11/07 04:59:41;;;;;;;0.98;0.63;;;21.30;58.30;;;;;;6053763;23;88332;-88
2023/11/07 05:02:07;;;;;;;0.77;0.50;;;21.30;58.40;;;;;;6051916;23;89839;-86
2023/11/07 05:04:34;;;;;;;0.82;0.45;;;21.30;58.40;;;;;;6052614;23;88187;-86
2023/11/07 05:07:00;;;;;;;0.65;0.60;;;21.30;58.50;;;;;;6050863;23;89204;-88
2023/11/07 05:09:26;;;;;;;0.75;0.50;;;21.30;58.60;;;;;;6051618;23;88234;-87
2023/11/07 05:11:52;;;;;;;1.08;0.70;;;21.30;58.40;;;;;;6050942;23;89060;-88
2023/11/07 05:14:18;;;;;;;0.75;0.43;;;21.30;58.40;;;;;;6051749;23;91067;-88
2023/11/07 05:16:43;;;;;;;1.38;0.50;;;21.30;58.40;;;;;;6053395;23;87381;-87
2023/11/07 05:19:09;;;;;;;0.75;0.65;;;21.30;58.40;;;;;;6049629;23;88235;-87
2023/11/07 05:21:36;;;;;;;0.77;0.52;;;21.30;58.40;;;;;;6038443;23;89546;-87
2023/11/07 05:24:05;;;;;;;0.50;0.50;;;21.30;58.40;;;;;;6051640;23;89425;-88
2023/11/07 05:26:31;;;;;;;0.70;0.50;;;21.30;58.40;;;;;;6054120;23;89612;-89
2023/11/07 05:28:59;;;;;;;0.80;0.50;;;21.30;58.40;;;;;;6051268;23;87439;-88
2023/11/07 05:31:26;;;;;;;1.70;0.80;;;21.20;58.20;;;;;;6050024;23;89417;-89
2023/11/07 05:33:51;;;;;;;0.40;0.40;;;21.30;58.30;;;;;;6049286;23;91019;-88
2023/11/07 05:36:17;;;;;;;0.73;0.60;;;21.30;58.30;;;;;;6051079;23;89819;-88
2023/11/07 05:38:43;;;;;;;0.40;0.40;;;21.20;58.30;;;;;;6055136;23;87224;-87
2023/11/07 05:41:10;;;;;;;0.60;0.60;;;21.20;58.30;;;;;;6052737;23;89677;-87
2023/11/07 05:43:36;;;;;;;0.65;0.50;;;21.20;58.30;;;;;;6052563;23;89137;-86
2023/11/07 05:46:02;;;;;;;0.60;0.47;;;21.20;58.20;;;;;;6051332;23;91148;-86
2023/11/07 05:48:28;;;;;;;1.13;0.73;;;21.20;58.30;;;;;;6058251;23;87244;-86
2023/11/07 05:50:53;;;;;;;0.70;0.55;;;21.20;58.40;;;;;;6058978;23;87589;-86
2023/11/07 05:53:19;;;;;;;0.47;0.40;;;21.20;58.40;;;;;;6058405;23;90453;-87
2023/11/07 05:55:45;;;;;;;0.75;0.55;;;21.20;58.30;;;;;;6055440;23;87313;-87
2023/11/07 05:58:11;;;;;;;1.42;0.60;;;21.20;58.50;;;;;;6052689;23;87389;-87
2023/11/07 06:00:37;;;;;;;0.65;0.50;;;21.20;58.60;;;;;;6054090;23;86700;-87
2023/11/07 06:03:02;;;;;;;0.40;0.40;;;21.20;58.50;;;;;;6052125;23;88926;-87
2023/11/07 06:05:28;;;;;;;0.30;0.30;;;21.20;58.40;;;;;;6055866;23;87922;-86
2023/11/07 06:07:55;;;;;;;0.50;0.50;;;21.20;58.40;;;;;;6054573;23;88409;-87
2023/11/07 06:10:24;;;;;;;0.73;0.60;;;21.20;58.40;;;;;;6049998;23;89621;-87
2023/11/07 06:12:50;;;;;;;0.68;0.40;;;21.20;58.20;;;;;;6051484;23;90525;-87
2023/11/07 06:15:16;;;;;;;0.85;0.60;;;21.20;58.20;;;;;;6052173;23;88878;-87
2023/11/07 06:17:46;;;;;;;0.70;0.60;;;21.20;58.40;;;;;;6052856;23;88344;-87
2023/11/07 06:20:12;;;;;;;0.80;0.65;;;21.20;58.20;;;;;;6052195;23;89452;-87
2023/11/07 06:22:38;;;;;;;0.55;0.40;;;21.20;58.40;;;;;;6050902;23;90218;-87
2023/11/07 06:25:04;;;;;;;0.63;0.63;;;21.20;58.30;;;;;;6041567;23;88106;-87
2023/11/07 06:27:30;;;;;;;0.77;0.55;;;21.20;58.30;;;;;;6051940;23;87403;-86
2023/11/07 06:29:58;;;;;;;1.30;0.60;;;21.10;58.20;;;;;;6049485;23;89551;-87
2023/11/07 06:32:24;;;;;;;1.65;0.93;;;21.10;58.10;;;;;;6053150;23;88591;-87
2023/11/07 06:34:49;;;;;;;0.85;0.60;;;21.10;58.10;;;;;;6051057;23;91200;-87
2023/11/07 06:37:16;;;;;;;0.55;0.50;;;21.10;58.40;;;;;;6051820;23;87804;-88
2023/11/07 06:39:42;;;;;;;0.70;0.50;;;21.10;58.20;;;;;;6054076;23;87530;-87
2023/11/07 06:42:07;;;;;;;0.60;0.50;;;21.10;58.20;;;;;;6054175;23;88046;-87
2023/11/07 06:44:33;;;;;;;0.93;0.38;;;21.10;58.20;;;;;;6051603;23;89969;-87
2023/11/07 06:46:59;;;;;;;1.77;0.60;;;21.10;58.10;;;;;;6051429;23;87823;-87
2023/11/07 06:49:25;;;;;;;0.75;0.45;;;21.10;58.30;;;;;;6052359;23;89513;-86
2023/11/07 06:51:51;;;;;;;0.73;0.60;;;21.10;58.40;;;;;;6051913;23;89100;-87
2023/11/07 06:54:17;;;;;;;0.43;0.43;;;21.10;58.40;;;;;;6052630;23;88175;-87
2023/11/07 06:56:44;;;;;;;0.63;0.47;;;21.10;58.30;;;;;;6051006;23;88429;-87
2023/11/07 06:59:17;;;;;;;0.70;0.50;;;21.10;58.50;;;;;;6054228;23;87068;-85
2023/11/07 07:01:45;;;;;;;0.80;0.52;;;21.10;58.30;;;;;;6052201;23;88746;-85
2023/11/07 07:04:11;;;;;;;0.68;0.40;;;21.10;58.40;;;;;;6050433;23;88488;-87
2023/11/07 07:06:37;;;;;;;1.30;0.70;;;21.10;58.30;;;;;;6053112;23;86936;-87
2023/11/07 07:09:04;;;;;;;0.70;0.60;;;21.10;58.30;;;;;;6052955;23;89042;-86
2023/11/07 07:11:30;;;;;;;0.82;0.60;;;21.10;58.20;;;;;;6053265;23;90611;-86
2023/11/07 07:13:57;;;;;;;0.43;0.32;;;21.10;58.30;;;;;;6056113;23;87828;-86
2023/11/07 07:16:23;;;;;;;0.57;0.50;;;21.10;58.20;;;;;;6054425;23;87465;-86
2023/11/07 07:18:49;;;;;;;0.45;0.45;;;21.10;58.30;;;;;;6051353;23;89138;-86
2023/11/07 07:21:16;;;;;;;0.57;0.40;;;21.10;58.30;;;;;;6051686;23;90760;-86
2023/11/07 07:23:46;;;;;;;0.38;0.38;;;21.10;58.40;;;;;;6053012;23;91132;-85
2023/11/07 07:26:14;;;;;;;0.85;0.50;;;21.10;58.40;;;;;;6052576;23;87238;-86
2023/11/07 07:28:40;;;;;;;3.58;1.13;;;21.10;58.30;;;;;;6057073;23;87464;-87
2023/11/07 07:31:06;;;;;;;4.80;1.50;;;21.00;58.20;;;;;;6054806;23;88178;-87
2023/11/07 07:33:41;;;;;;;6.03;1.40;;;21.00;58.20;;;;;;6052404;23;90211;-89
2023/11/07 07:36:11;;;;;;;7.93;2.10;;;21.00;57.50;;;;;;6057840;23;87182;-94
2023/11/07 07:38:37;;;;;;;5.10;1.38;;;21.10;57.90;;;;;;6063506;23;88722;-93
2023/11/07 07:41:05;;;;;;;6.07;1.55;;;21.00;58.10;;;;;;6059744;23;90326;-93
2023/11/07 07:43:31;;;;;;;3.97;1.50;;;21.10;58.00;;;;;;6060965;23;90295;-93
2023/11/07 07:45:57;;;;;;;4.18;1.70;;;21.10;58.00;;;;;;6060321;23;88056;-89
2023/11/07 07:48:22;;;;;;;3.72;1.25;;;21.10;58.20;;;;;;6062890;23;90785;-91
2023/11/07 07:50:48;;;;;;;5.18;1.20;;;21.10;58.10;;;;;;6062867;23;90413;-89
2023/11/07 07:53:17;;;;;;;2.40;1.10;;;21.20;58.30;;;;;;6061091;23;91163;-88
2023/11/07 07:55:43;;;;;;;3.90;1.47;;;21.20;58.70;;;;;;6058334;23;87540;-89
2023/11/07 07:58:11;;;;;;;3.70;1.13;;;21.20;58.80;;;;;;6042127;23;88822;-90
2023/11/07 08:00:38;;;;;;;4.03;1.52;;;21.30;58.70;;;;;;6028010;23;89919;-89
2023/11/07 08:03:06;;;;;;;4.43;1.50;;;21.30;58.90;;;;;;6071225;23;88807;-88
2023/11/07 08:05:33;;;;;;;2.65;1.13;;;21.30;58.80;;;;;;6066084;23;88128;-91
2023/11/07 08:07:59;;;;;;;4.28;1.23;;;21.30;58.70;;;;;;6075640;23;87812;-89
2023/11/07 08:10:26;;;;;;;3.83;1.38;;;21.40;58.70;;;;;;6081708;23;91233;-91
2023/11/07 08:12:56;;;;;;;2.58;1.33;;;21.40;58.80;;;;;;6061818;23;91744;-88
2023/11/07 08:15:22;;;;;;;5.78;1.33;;;21.40;59.10;;;;;;6054291;23;87286;-90
2023/11/07 08:17:50;;;;;;;3.50;1.13;;;21.40;59.10;;;;;;6066117;22;89949;-89
2023/11/07 08:20:19;;;;;;;2.88;1.38;;;21.50;58.90;;;;;;6085589;23;90377;-88
2023/11/07 08:22:46;;;;;;;3.83;1.77;;;21.50;59.20;;;;;;6086041;23;87923;-89
2023/11/07 08:25:13;;;;;;;6.68;1.48;;;21.50;59.30;;;;;;6076650;23;87522;-89
2023/11/07 08:27:44;;;;;;;2.35;0.90;;;21.50;59.30;;;;;;6055647;23;89282;-90
2023/11/07 08:30:14;;;;;;;4.22;1.23;;;21.40;58.50;;;;;;6062006;23;89928;-89
2023/11/07 08:32:43;;;;;;;3.58;1.15;;;21.50;59.00;;;;;;6069820;23;89031;-89
2023/11/07 08:35:15;;;;;;;4.60;1.50;;;21.50;59.10;;;;;;6054769;23;89086;-87
2023/11/07 08:37:42;;;;;;;3.35;1.40;;;21.50;58.50;;;;;;6044107;23;88399;-87
2023/11/07 08:40:12;;;;;;;3.63;1.17;;;21.50;58.90;;;;;;6043183;23;90202;-86
2023/11/07 08:42:43;;;;;;;3.05;1.30;;;21.50;59.20;;;;;;6049808;23;89897;-90
2023/11/07 08:45:21;;;;;;;4.90;1.63;;;21.50;58.70;;;;;;6052924;23;87361;-91
2023/11/07 08:47:47;;;;;;;11.20;1.33;;;21.50;58.60;;;;;;6051899;23;88270;-88
2023/11/07 08:50:14;;;;;;;37.85;10.95;;;21.50;58.50;;;;;;6050250;23;90564;-87
2023/11/07 08:52:41;;;;;;;26.13;5.75;;;21.50;57.80;;;;;;6051393;23;87563;-87
2023/11/07 08:55:08;;;;;;;20.10;5.47;;;21.50;58.30;;;;;;6051452;23;87722;-87
2023/11/07 08:57:38;;;;;;;25.92;5.45;;;21.50;58.30;;;;;;6050501;23;89430;-87
2023/11/07 09:00:08;;;;;;;22.55;6.32;;;21.50;58.40;;;;;;6050488;23;90466;-87
2023/11/07 09:02:38;;;;;;;25.77;5.15;;;21.50;58.20;;;;;;6051629;23;91706;-87
2023/11/07 09:05:05;;;;;;;15.05;4.60;;;21.50;58.10;;;;;;6051759;23;87489;-87
2023/11/07 09:07:31;;;;;;;16.50;5.32;;;21.50;58.30;;;;;;6051079;23;89937;-86
2023/11/07 09:09:57;;;;;;;23.77;5.32;;;21.50;58.50;;;;;;6049720;23;89495;-88
2023/11/07 09:12:24;;;;;;;17.27;5.60;;;21.50;58.40;;;;;;6052368;23;87635;-88
2023/11/07 09:14:52;;;;;;;22.83;7.13;;;21.50;58.50;;;;;;6052747;23;87662;-86
2023/11/07 09:17:18;;;;;;;21.75;6.03;;;21.50;58.40;;;;;;6054770;23;86908;-87
2023/11/07 09:19:44;;;;;;;28.08;6.13;;;21.50;58.40;;;;;;6052545;23;87479;-86
2023/11/07 09:22:10;;;;;;;25.42;6.95;;;21.50;58.10;;;;;;6038988;23;90202;-87
2023/11/07 09:24:36;;;;;;;21.80;6.78;;;21.50;58.30;;;;;;6051035;23;89347;-87
2023/11/07 09:27:05;;;;;;;26.80;7.18;;;21.50;58.20;;;;;;6049231;23;89192;-88
2023/11/07 09:29:32;;;;;;;29.30;7.15;;;21.50;58.30;;;;;;6052300;23;89803;-86
2023/11/07 09:31:58;;;;;;;30.42;8.77;;;21.50;58.30;;;;;;6052875;23;88038;-87
2023/11/07 09:34:24;;;;;;;26.55;7.53;;;21.50;58.30;;;;;;6050321;23;87299;-85
2023/11/07 09:36:50;;;;;;;26.67;6.80;;;21.50;58.20;;;;;;6052516;23;87415;-85
2023/11/07 09:39:15;;;;;;;23.10;7.30;;;21.50;58.20;;;;;;6051893;23;87564;-86
2023/11/07 09:41:43;;;;;;;25.08;7.05;;;21.50;58.20;;;;;;6049985;23;89295;-88
2023/11/07 09:44:13;;;;;;;23.67;7.40;;;21.50;58.20;;;;;;6050126;23;87299;-87
2023/11/07 09:46:41;;;;;;;24.40;7.63;;;21.50;58.00;;;;;;6050077;23;89954;-86
2023/11/07 09:49:07;;;;;;;29.58;7.97;;;21.50;57.90;;;;;;6052653;23;88768;-88
2023/11/07 09:51:37;;;;;;;22.23;6.78;;;21.50;57.80;;;;;;6051382;23;91359;-87
2023/11/07 09:54:05;;;;;;;20.63;7.15;;;21.50;58.10;;;;;;6051277;23;88327;-87
2023/11/07 09:56:39;;;;;;;21.33;6.85;;;21.50;58.00;;;;;;6053304;23;87395;-87
2023/11/07 09:59:36;;;;;;;24.92;7.05;;;21.50;58.00;;;;;;6051539;23;95406;-86
2023/11/07 10:02:03;;;;;;;21.80;6.75;;;21.50;58.10;;;;;;6045995;23;88006;-87
2023/11/07 10:04:34;;;;;;;22.20;7.18;;;21.50;58.00;;;;;;6050998;23;87460;-87
2023/11/07 10:07:00;;;;;;;20.65;6.85;;;21.50;58.00;;;;;;6052656;23;86637;-86
2023/11/07 10:09:29;;;;;;;31.00;8.32;;;21.50;57.80;;;;;;6050153;23;90894;-86
2023/11/07 10:11:56;;;;;;;27.17;7.13;;;21.50;57.70;;;;;;6053701;23;88331;-87
2023/11/07 10:14:22;;;;;;;29.38;7.20;;;21.50;57.80;;;;;;6051954;23;88163;-88
2023/11/07 10:16:52;;;;;;;20.77;6.82;;;21.50;57.80;;;;;;6050868;23;89386;-87
2023/11/07 10:19:22;;;;;;;20.27;7.30;;;21.50;57.90;;;;;;6049591;23;90381;-86
2023/11/07 10:21:48;;;;;;;23.52;6.40;;;21.50;58.30;;;;;;6050285;23;90039;-87
2023/11/07 10:24:14;;;;;;;25.38;8.07;;;21.50;57.50;;;;;;6038077;23;87447;-87
2023/11/07 10:27:02;;;;;;;21.15;6.63;;;21.50;57.60;;;;;;6052226;23;89413;-88
2023/11/07 10:29:32;;;;;;;22.10;6.93;;;21.50;57.50;;;;;;6051962;23;91194;-87
2023/11/07 10:31:59;;;;;;;22.10;7.35;;;21.50;57.50;;;;;;6053265;23;87570;-87
2023/11/07 10:34:25;;;;;;;20.55;6.70;;;21.50;57.50;;;;;;6052216;23;87433;-87
2023/11/07 10:36:51;;;;;;;19.55;6.75;;;21.50;57.30;;;;;;6049950;23;89685;-87
2023/11/07 10:39:21;;;;;;;23.35;7.72;;;21.50;57.30;;;;;;6048334;23;91870;-87
2023/11/07 10:41:47;;;;;;;22.27;8.00;;;21.50;57.30;;;;;;6049474;23;91336;-87
2023/11/07 10:44:23;;;;;;;17.42;6.05;;;21.50;57.30;;;;;;6053679;23;87659;-87
2023/11/07 10:46:51;;;;;;;19.35;6.47;;;21.50;57.50;;;;;;6051004;23;89511;-87
2023/11/07 10:49:18;;;;;;;20.33;7.18;;;21.50;57.50;;;;;;6052320;23;88009;-86
2023/11/07 10:51:44;;;;;;;20.10;7.07;;;21.50;57.50;;;;;;6049847;23;90600;-87
2023/11/07 10:54:10;;;;;;;16.92;6.20;;;21.50;57.50;;;;;;6052468;23;87037;-87
2023/11/07 10:56:40;;;;;;;18.15;6.78;;;21.50;57.50;;;;;;6051488;23;89184;-87
2023/11/07 10:59:15;;;;;;;17.17;6.43;;;21.50;57.50;;;;;;6052198;23;92663;-87
2023/11/07 11:01:42;;;;;;;24.92;7.25;;;21.50;57.30;;;;;;6050654;23;90267;-87
2023/11/07 11:04:11;;;;;;;19.77;6.70;;;21.50;57.20;;;;;;6049736;23;88378;-88
2023/11/07 11:06:38;;;;;;;17.25;5.82;;;21.50;57.40;;;;;;6049510;23;88473;-86
2023/11/07 11:09:10;;;;;;;16.73;5.78;;;21.50;57.20;;;;;;6052880;23;89149;-93
2023/11/07 11:11:41;;;;;;;17.85;7.28;;;21.50;57.00;;;;;;6054254;23;89712;-86
2023/11/07 11:14:10;;;;;;;16.27;5.93;;;21.50;56.90;;;;;;6056203;23;87603;-86
2023/11/07 11:16:43;;;;;;;17.63;6.13;;;21.50;56.80;;;;;;6042124;23;89867;-90
2023/11/07 11:19:37;;;;;;;18.25;6.55;;;21.50;56.80;;;;;;6077716;23;90157;-88
2023/11/07 11:22:10;;;;;;;19.48;6.05;;;21.50;56.90;;;;;;6055799;23;93316;-87
2023/11/07 11:24:53;;;;;;;12.63;5.35;;;21.60;57.20;;;;;;6054970;23;87820;-88
2023/11/07 11:27:25;;;;;;;15.45;5.45;;;21.60;57.30;;;;;;6054746;23;89311;-90
2023/11/07 11:29:51;;;;;;;16.25;5.38;;;21.60;57.30;;;;;;6053908;23;88203;-88
2023/11/07 11:32:30;;;;;;;14.00;5.32;;;21.60;57.30;;;;;;6057693;23;89245;-91
2023/11/07 11:35:21;;;;;;;16.70;4.95;;;21.70;57.40;;;;;;6051856;23;86998;-89
2023/11/07 11:38:13;;;;;;;16.60;4.82;;;21.70;57.40;;;;;;6050748;23;87817;-86
2023/11/07 11:40:52;;;;;;;19.85;5.70;;;21.70;57.40;;;;;;6053492;23;88022;-88
2023/11/07 11:43:20;;;;;;;16.15;5.50;;;21.80;57.50;;;;;;6051578;23;87474;-85
2023/11/07 11:45:47;;;;;;;16.70;5.15;;;21.80;57.50;;;;;;6050141;23;87682;-90
2023/11/07 11:48:13;;;;;;;18.50;5.63;;;21.80;57.60;;;;;;6051892;23;88571;-87
2023/11/07 11:50:39;;;;;;;11.98;4.78;;;21.80;57.00;;;;;;6048288;23;91316;-86
2023/11/07 11:53:05;;;;;;;16.08;4.85;;;21.80;57.30;;;;;;6049171;23;90224;-85
2023/11/07 11:55:59;;;;;;;15.25;6.13;;;21.80;57.50;;;;;;6046843;23;88416;-85
2023/11/07 11:58:30;;;;;;;12.85;5.72;;;21.80;57.40;;;;;;6049304;23;89618;-86
2023/11/07 12:00:57;;;;;;;11.77;4.50;;;21.80;57.30;;;;;;6049833;23;90578;-87
2023/11/07 12:03:24;;;;;;;11.60;4.57;;;21.80;57.30;;;;;;6052429;23;88342;-86
2023/11/07 12:06:02;;;;;;;16.67;5.60;;;21.80;57.30;;;;;;6039579;23;87383;-86
2023/11/07 12:08:38;;;;;;;12.07;5.40;;;21.80;57.30;;;;;;6051208;23;89858;-85
2023/11/07 12:11:05;;;;;;;15.98;5.20;;;21.80;57.30;;;;;;6050161;23;94966;-86
2023/11/07 12:13:31;;;;;;;12.18;4.85;;;21.80;57.40;;;;;;6059930;23;87769;-86
2023/11/07 12:16:19;;;;;;;13.98;5.30;;;21.80;57.40;;;;;;6054066;23;87957;-85
2023/11/07 12:18:46;;;;;;;10.65;4.82;;;21.80;57.40;;;;;;6073522;23;89893;-86
2023/11/07 12:21:26;;;;;;;18.13;4.57;;;21.80;57.20;;;;;;6049405;23;91437;-86
2023/11/07 12:23:53;;;;;;;12.93;4.47;;;21.70;57.30;;;;;;6049402;23;91001;-86
2023/11/07 12:26:20;;;;;;;12.30;4.45;;;21.80;57.00;;;;;;6051443;23;88540;-86
2023/11/07 12:28:46;;;;;;;15.35;5.13;;;21.80;56.90;;;;;;6051149;23;89049;-85
2023/11/07 12:31:12;;;;;;;11.35;4.15;;;21.80;56.90;;;;;;6049791;23;90238;-86
2023/11/07 12:33:42;;;;;;;10.68;4.70;;;21.80;57.00;;;;;;6053357;23;87679;-85
2023/11/07 12:36:12;;;;;;;11.38;4.70;;;21.90;56.90;;;;;;6050825;23;87735;-86
2023/11/07 12:38:38;;;;;;;11.07;4.32;;;21.80;56.90;;;;;;6075910;23;87504;-87
2023/11/07 12:41:05;;;;;;;9.85;3.67;;;21.90;57.00;;;;;;6051962;23;90286;-86
2023/11/07 12:43:42;;;;;;;9.82;3.92;;;21.90;56.90;;;;;;6050567;23;91003;-87
2023/11/07 12:46:09;;;;;;;12.07;3.95;;;21.90;56.80;;;;;;6052289;23;88378;-86